createdAt,value
2023-07-21T00:01:11.657Z,29.87
2023-07-21T00:04:14.654Z,30.07
2023-07-21T00:07:17.273Z,29.70
2023-07-21T00:10:19.874Z,29.83
2023-07-21T00:13:22.459Z,29.77
2023-07-21T00:16:28.796Z,30.09
2023-07-21T00:19:31.665Z,30.10
2023-07-21T00:22:34.357Z,30.17
2023-07-21T00:25:36.851Z,30.36
2023-07-21T00:28:39.505Z,29.80
2023-07-21T00:31:50.345Z,30.49
2023-07-21T00:34:53.269Z,30.28
2023-07-21T00:37:56.698Z,30.44
2023-07-21T00:40:59.216Z,29.97
2023-07-21T00:44:02.283Z,29.79
2023-07-21T00:47:07.087Z,30.37
2023-07-21T00:50:10.819Z,30.13
2023-07-21T00:53:13.720Z,29.97
2023-07-21T00:56:16.339Z,29.86
2023-07-21T00:59:19.710Z,30.17
2023-07-21T01:02:23.697Z,30.05
2023-07-21T01:05:26.516Z,30.23
2023-07-21T01:08:29.011Z,30.11
2023-07-21T01:11:31.675Z,30.17
2023-07-21T01:14:34.137Z,30.20
2023-07-21T01:17:39.985Z,30.33
2023-07-21T01:20:43.537Z,30.20
2023-07-21T01:23:53.036Z,30.30
2023-07-21T01:26:57.851Z,30.60
2023-07-21T01:30:03.848Z,30.03
2023-07-21T01:33:08.534Z,30.34
2023-07-21T01:36:11.585Z,30.41
2023-07-21T01:39:14.555Z,30.48
2023-07-21T01:42:20.464Z,30.35
2023-07-21T01:45:23.175Z,30.78
2023-07-21T01:48:25.742Z,30.49
2023-07-21T01:51:29.383Z,30.73
2023-07-21T01:54:37.350Z,30.79
2023-07-21T01:57:46.367Z,30.38
2023-07-21T02:00:52.029Z,30.63
2023-07-21T02:03:54.864Z,30.50
2023-07-21T02:06:57.503Z,30.82
2023-07-21T02:10:00.580Z,30.83
2023-07-21T02:13:05.274Z,30.72
2023-07-21T02:16:07.858Z,30.52
2023-07-21T02:19:10.534Z,30.80
2023-07-21T02:22:14.598Z,30.85
2023-07-21T02:25:17.344Z,30.70
2023-07-21T02:28:21.688Z,30.94
2023-07-21T02:31:24.353Z,30.72
2023-07-21T02:34:26.757Z,31.16
2023-07-21T02:37:29.294Z,31.01
2023-07-21T02:40:32.886Z,30.96
2023-07-21T02:43:36.796Z,30.62
2023-07-21T02:46:39.469Z,30.72
2023-07-21T02:49:42.048Z,30.73
2023-07-21T02:52:44.681Z,30.83
2023-07-21T02:55:48.200Z,31.08
2023-07-21T02:58:52.156Z,30.94
2023-07-21T03:01:57.055Z,30.94
2023-07-21T03:04:59.706Z,31.06
2023-07-21T03:08:02.567Z,31.32
2023-07-21T03:11:05.202Z,30.97
2023-07-21T03:14:10.988Z,31.06
2023-07-21T03:17:14.233Z,31.04
2023-07-21T03:20:16.899Z,31.36
2023-07-21T03:23:19.391Z,31.22
2023-07-21T03:26:23.030Z,31.34
2023-07-21T03:29:27.347Z,31.31
2023-07-21T03:32:30.051Z,31.14
2023-07-21T03:35:32.537Z,31.13
2023-07-21T03:38:36.879Z,31.11
2023-07-21T03:41:39.860Z,31.02
2023-07-21T03:44:43.818Z,31.27
2023-07-21T03:47:46.483Z,31.32
2023-07-21T03:50:49.030Z,31.32
2023-07-21T03:53:51.614Z,31.18
2023-07-21T03:56:54.193Z,31.02
2023-07-21T03:59:59.118Z,30.99
2023-07-21T04:03:01.797Z,30.85
2023-07-21T04:06:09.241Z,30.96
2023-07-21T04:09:14.123Z,31.07
2023-07-21T04:12:17.263Z,31.21
2023-07-21T04:15:21.201Z,31.59
2023-07-21T04:18:25.389Z,31.36
2023-07-21T04:21:28.648Z,31.64
2023-07-21T04:24:31.413Z,31.99
2023-07-21T04:27:33.895Z,32.12
2023-07-21T04:30:37.831Z,32.25
2023-07-21T04:33:42.048Z,32.39
2023-07-21T04:36:44.567Z,32.38
2023-07-21T04:39:47.111Z,32.49
2023-07-21T04:42:49.987Z,32.49
2023-07-21T04:45:56.115Z,33.04
2023-07-21T04:48:59.697Z,32.75
2023-07-21T04:52:04.002Z,32.78
2023-07-21T04:55:09.647Z,33.17
2023-07-21T04:58:12.220Z,33.18
2023-07-21T05:01:16.989Z,33.48
2023-07-21T05:04:20.724Z,33.59
2023-07-21T05:07:23.307Z,33.81
2023-07-21T05:10:26.608Z,33.46
2023-07-21T05:13:30.863Z,33.36
2023-07-21T05:16:36.493Z,33.51
2023-07-21T05:19:39.077Z,33.91
2023-07-21T05:22:41.801Z,33.82
2023-07-21T05:25:44.802Z,33.78
2023-07-21T05:28:48.053Z,33.83
2023-07-21T05:31:53.401Z,33.81
2023-07-21T05:34:55.992Z,34.00
2023-07-21T05:37:58.521Z,34.09
2023-07-21T05:41:01.381Z,34.12
2023-07-21T05:44:03.805Z,34.04
2023-07-21T05:47:08.234Z,34.28
2023-07-21T05:50:11.364Z,34.34
2023-07-21T05:53:14.026Z,34.36
2023-07-21T05:56:16.738Z,34.54
2023-07-21T05:59:19.310Z,34.27
2023-07-21T06:02:23.301Z,34.62
2023-07-21T06:05:25.895Z,34.47
2023-07-21T06:08:28.397Z,34.71
2023-07-21T06:11:31.004Z,34.69
2023-07-21T06:14:33.985Z,34.48
2023-07-21T06:17:37.890Z,34.50
2023-07-21T06:20:40.415Z,34.56
2023-07-21T06:23:43.242Z,34.95
2023-07-21T06:26:45.806Z,34.78
2023-07-21T06:29:48.333Z,34.97
2023-07-21T06:32:52.382Z,34.86
2023-07-21T06:35:55.381Z,34.73
2023-07-21T06:38:58.609Z,35.02
2023-07-21T06:42:01.189Z,34.93
2023-07-21T06:45:03.957Z,34.86
2023-07-21T06:48:08.992Z,34.90
2023-07-21T06:51:11.694Z,34.90
2023-07-21T06:54:14.291Z,34.70
2023-07-21T06:57:16.873Z,34.95
2023-07-21T07:00:19.907Z,35.05
2023-07-21T07:03:23.868Z,34.93
2023-07-21T07:06:28.594Z,34.69
2023-07-21T07:09:31.516Z,34.78
2023-07-21T07:12:34.092Z,34.53
2023-07-21T07:15:36.736Z,34.35
2023-07-21T07:18:40.679Z,34.34
2023-07-21T07:21:43.233Z,33.97
2023-07-21T07:24:45.842Z,33.57
2023-07-21T07:27:48.436Z,33.13
2023-07-21T07:30:51.346Z,32.95
2023-07-21T07:33:55.479Z,32.84
2023-07-21T07:36:59.924Z,32.59
2023-07-21T07:40:02.592Z,32.58
2023-07-21T07:43:05.170Z,32.47
2023-07-21T07:46:08.972Z,32.51
2023-07-21T07:49:12.982Z,32.31
2023-07-21T07:52:16.682Z,32.29
2023-07-21T07:55:20.186Z,32.24
2023-07-21T07:58:23.007Z,31.86
2023-07-21T08:01:25.774Z,31.99
2023-07-21T08:04:30.077Z,31.87
2023-07-21T08:07:33.856Z,32.08
2023-07-21T08:10:36.891Z,31.97
2023-07-21T08:13:41.051Z,32.10
2023-07-21T08:16:43.819Z,31.68
2023-07-21T08:19:47.758Z,31.71
2023-07-21T08:22:51.361Z,31.86
2023-07-21T08:25:53.927Z,31.95
2023-07-21T08:28:56.828Z,31.74
2023-07-21T08:32:00.321Z,31.72
2023-07-21T08:35:04.785Z,31.79
2023-07-21T08:38:07.290Z,31.68
2023-07-21T08:41:11.015Z,31.67
2023-07-21T08:44:13.680Z,31.37
2023-07-21T08:47:16.988Z,31.26
2023-07-21T08:50:21.188Z,31.46
2023-07-21T08:53:25.914Z,31.51
2023-07-21T08:56:28.577Z,31.58
2023-07-21T08:59:31.178Z,31.66
2023-07-21T09:02:41.412Z,31.85
2023-07-21T09:05:49.054Z,31.88
2023-07-21T09:08:51.682Z,32.00
2023-07-21T09:12:02.443Z,32.35
2023-07-21T09:15:09.843Z,32.09
2023-07-21T09:18:12.392Z,32.52
2023-07-21T09:21:20.411Z,32.50
2023-07-21T09:24:23.127Z,32.55
2023-07-21T09:27:25.649Z,32.51
2023-07-21T09:30:28.187Z,32.88
2023-07-21T09:33:30.958Z,32.62
2023-07-21T09:36:35.157Z,32.84
2023-07-21T09:39:37.714Z,32.88
2023-07-21T09:42:40.795Z,32.80
2023-07-21T09:45:43.887Z,32.66
2023-07-21T09:48:48.271Z,32.92
2023-07-21T09:51:53.155Z,32.89
2023-07-21T09:55:05.872Z,32.68
2023-07-21T09:58:11.530Z,32.74
2023-07-21T10:01:14.787Z,32.76
2023-07-21T10:04:17.676Z,32.84
2023-07-21T10:07:21.541Z,32.74
2023-07-21T10:10:24.369Z,32.76
2023-07-21T10:13:27.924Z,32.93
2023-07-21T10:16:31.440Z,32.68
2023-07-21T10:19:41.053Z,32.95
2023-07-21T10:22:56.857Z,32.91
2023-07-21T10:26:04.383Z,32.76
2023-07-21T10:29:24.893Z,32.81
2023-07-21T10:32:27.552Z,32.64
2023-07-21T10:35:37.783Z,32.87
2023-07-21T10:38:43.411Z,32.73
2023-07-21T10:41:46.116Z,33.02
2023-07-21T10:44:49.042Z,32.88
2023-07-21T10:47:51.821Z,32.80
2023-07-21T10:50:59.907Z,32.99
2023-07-21T10:54:04.894Z,32.90
2023-07-21T10:57:09.605Z,32.68
2023-07-21T11:00:13.892Z,32.88
2023-07-21T11:03:16.916Z,33.01
2023-07-21T11:06:19.660Z,32.97
2023-07-21T11:09:24.161Z,32.95
2023-07-21T11:12:26.937Z,33.03
2023-07-21T11:15:29.377Z,32.71
2023-07-21T11:18:31.963Z,33.07
2023-07-21T11:21:36.307Z,33.27
2023-07-21T11:24:40.377Z,33.91
2023-07-21T11:27:44.342Z,33.73
2023-07-21T11:30:49.836Z,34.35
2023-07-21T11:33:52.417Z,34.23
2023-07-21T11:36:57.475Z,34.23
2023-07-21T11:40:08.748Z,34.13
2023-07-21T11:43:11.371Z,33.90
2023-07-21T11:46:23.327Z,33.97
2023-07-21T11:49:29.282Z,33.80
2023-07-21T11:52:33.500Z,33.75
2023-07-21T11:55:37.726Z,33.74
2023-07-21T11:58:40.296Z,33.62
2023-07-21T12:01:43.028Z,33.70
2023-07-21T12:04:45.531Z,33.66
2023-07-21T12:07:48.135Z,33.75
2023-07-21T12:10:51.987Z,33.62
2023-07-21T12:13:54.833Z,33.32
2023-07-21T12:16:57.615Z,33.39
2023-07-21T12:20:00.266Z,33.74
2023-07-21T12:23:02.927Z,33.28
2023-07-21T12:26:09.300Z,33.50
2023-07-21T12:29:12.480Z,33.29
2023-07-21T12:32:15.452Z,33.26
2023-07-21T12:35:18.256Z,33.11
2023-07-21T12:38:21.420Z,33.07
2023-07-21T12:41:25.706Z,32.86
2023-07-21T12:44:28.428Z,33.31
2023-07-21T12:47:31.189Z,33.27
2023-07-21T12:50:33.628Z,33.66
2023-07-21T12:53:36.168Z,33.29
2023-07-21T12:56:40.090Z,32.90
2023-07-21T12:59:42.768Z,33.19
2023-07-21T13:02:45.369Z,33.27
2023-07-21T13:05:56.380Z,33.03
2023-07-21T13:09:00.049Z,33.20
2023-07-21T13:12:04.369Z,33.13
2023-07-21T13:15:08.294Z,33.25
2023-07-21T13:18:11.199Z,32.86
2023-07-21T13:21:13.873Z,33.25
2023-07-21T13:24:16.576Z,32.63
2023-07-21T13:27:20.785Z,32.71
2023-07-21T13:30:23.418Z,32.62
2023-07-21T13:33:26.077Z,32.57
2023-07-21T13:36:28.783Z,32.94
2023-07-21T13:39:31.719Z,32.55
2023-07-21T13:42:35.469Z,32.78
2023-07-21T13:45:38.047Z,32.74
2023-07-21T13:48:40.825Z,32.42
2023-07-21T13:51:43.580Z,32.92
2023-07-21T13:54:46.199Z,33.01
2023-07-21T13:57:50.090Z,33.22
2023-07-21T14:00:52.688Z,32.87
2023-07-21T14:03:55.951Z,33.03
2023-07-21T14:06:58.536Z,32.80
2023-07-21T14:10:01.948Z,33.24
2023-07-21T14:13:06.838Z,33.31
2023-07-21T14:16:10.191Z,33.41
2023-07-21T14:19:13.840Z,33.04
2023-07-21T14:22:16.449Z,33.11
2023-07-21T14:25:19.522Z,33.07
2023-07-21T14:28:23.434Z,33.06
2023-07-21T14:31:26.108Z,33.17
2023-07-21T14:34:28.534Z,33.33
2023-07-21T14:37:31.278Z,33.75
2023-07-21T14:40:33.781Z,33.69
2023-07-21T14:43:38.532Z,33.76
2023-07-21T14:46:41.775Z,33.85
2023-07-21T14:49:44.445Z,33.77
2023-07-21T14:52:47.059Z,34.06
2023-07-21T14:55:50.848Z,34.39
2023-07-21T14:58:54.760Z,34.65
2023-07-21T15:01:58.647Z,34.41
2023-07-21T15:05:01.639Z,34.97
2023-07-21T15:08:04.640Z,34.88
2023-07-21T15:11:08.604Z,35.24
2023-07-21T15:14:12.678Z,35.67
2023-07-21T15:17:15.506Z,35.70
2023-07-21T15:20:19.026Z,36.06
2023-07-21T15:23:21.644Z,36.05
2023-07-21T15:26:24.923Z,36.26
2023-07-21T15:29:29.473Z,36.52
2023-07-21T15:32:32.538Z,36.74
2023-07-21T15:35:45.053Z,36.80
2023-07-21T15:38:47.724Z,36.62
2023-07-21T15:41:50.343Z,36.71
2023-07-21T15:44:54.386Z,37.16
2023-07-21T15:47:57.296Z,37.54
2023-07-21T15:50:59.972Z,38.07
2023-07-21T15:54:16.014Z,38.67
2023-07-21T15:57:19.880Z,38.92
2023-07-21T16:00:24.470Z,38.95
2023-07-21T16:03:28.082Z,39.10
2023-07-21T16:06:30.751Z,39.22
2023-07-21T16:09:33.375Z,39.17
2023-07-21T16:12:36.022Z,38.89
2023-07-21T16:15:40.332Z,39.72
2023-07-21T16:18:44.290Z,39.57
2023-07-21T16:21:46.889Z,39.35
2023-07-21T16:24:49.591Z,39.47
2023-07-21T16:27:52.249Z,39.45
2023-07-21T16:30:56.486Z,39.63
2023-07-21T16:33:59.103Z,39.31
2023-07-21T16:37:01.703Z,39.53
2023-07-21T16:40:07.205Z,39.36
2023-07-21T16:43:10.041Z,39.02
2023-07-21T16:46:13.837Z,38.84
2023-07-21T16:49:16.544Z,39.00
2023-07-21T16:52:20.037Z,39.08
2023-07-21T16:55:22.985Z,38.75
2023-07-21T16:58:28.316Z,38.53
2023-07-21T17:01:33.853Z,38.73
2023-07-21T17:04:36.701Z,38.36
2023-07-21T17:07:40.471Z,38.26
2023-07-21T17:10:43.146Z,38.37
2023-07-21T17:13:45.681Z,38.31
2023-07-21T17:16:49.880Z,38.12
2023-07-21T17:19:52.502Z,38.26
2023-07-21T17:22:55.245Z,38.42
2023-07-21T17:25:57.855Z,38.31
2023-07-21T17:29:00.545Z,38.05
2023-07-21T17:32:04.607Z,38.27
2023-07-21T17:35:08.682Z,38.82
2023-07-21T17:38:11.663Z,39.12
2023-07-21T17:41:14.301Z,38.95
2023-07-21T17:44:16.913Z,39.39
2023-07-21T17:47:20.851Z,39.29
2023-07-21T17:50:23.767Z,39.29
2023-07-21T17:53:27.216Z,39.73
2023-07-21T17:56:29.948Z,39.65
2023-07-21T17:59:32.582Z,39.59
2023-07-21T18:02:36.535Z,39.65
2023-07-21T18:05:39.937Z,39.71
2023-07-21T18:08:42.537Z,39.80
2023-07-21T18:11:45.216Z,39.67
2023-07-21T18:14:48.754Z,39.74
2023-07-21T18:17:54.295Z,39.57
2023-07-21T18:21:07.301Z,39.68
2023-07-21T18:24:10.084Z,39.55
2023-07-21T18:27:12.688Z,39.65
2023-07-21T18:30:15.413Z,39.67
2023-07-21T18:33:19.734Z,39.47
2023-07-21T18:36:22.443Z,39.48
2023-07-21T18:39:25.060Z,39.19
2023-07-21T18:42:27.678Z,39.39
2023-07-21T18:45:30.266Z,39.71
2023-07-21T18:48:34.574Z,39.78
2023-07-21T18:51:37.281Z,39.77
2023-07-21T18:54:39.934Z,39.40
2023-07-21T18:57:42.463Z,39.51
2023-07-21T19:00:45.124Z,39.33
2023-07-21T19:03:49.178Z,39.18
2023-07-21T19:06:51.774Z,39.13
2023-07-21T19:09:54.933Z,39.21
2023-07-21T19:12:57.656Z,38.98
2023-07-21T19:16:00.310Z,39.08
2023-07-21T19:19:04.288Z,39.07
2023-07-21T19:22:07.392Z,39.13
2023-07-21T19:25:11.176Z,38.96
2023-07-21T19:28:13.765Z,38.78
2023-07-21T19:31:17.543Z,38.66
2023-07-21T19:34:21.632Z,38.65
2023-07-21T19:37:24.440Z,38.50
2023-07-21T19:40:26.921Z,38.38
2023-07-21T19:43:29.946Z,38.42
2023-07-21T19:46:32.945Z,38.25
2023-07-21T19:49:37.168Z,38.31
2023-07-21T19:52:40.064Z,38.26
2023-07-21T19:55:43.023Z,38.46
2023-07-21T19:58:46.342Z,38.37
2023-07-21T20:01:49.902Z,38.31
2023-07-21T20:04:54.011Z,38.48
2023-07-21T20:07:56.736Z,38.19
2023-07-21T20:10:59.249Z,38.15
2023-07-21T20:14:01.992Z,38.05
2023-07-21T20:17:04.854Z,38.07
2023-07-21T20:20:09.599Z,38.10
2023-07-21T20:23:12.249Z,38.02
2023-07-21T20:26:14.836Z,37.88
2023-07-21T20:29:17.479Z,37.93
2023-07-21T20:32:20.070Z,37.82
2023-07-21T20:35:24.192Z,37.97
2023-07-21T20:38:27.539Z,37.81
2023-07-21T20:41:30.235Z,37.79
2023-07-21T20:44:32.789Z,37.62
2023-07-21T20:47:35.559Z,37.52
2023-07-21T20:50:39.582Z,37.56
2023-07-21T20:53:42.195Z,37.56
2023-07-21T20:56:44.812Z,37.43
2023-07-21T20:59:47.469Z,37.39
2023-07-21T21:02:50.482Z,37.44
2023-07-21T21:05:58.695Z,37.37
2023-07-21T21:09:01.383Z,37.33
2023-07-21T21:12:04.348Z,37.26
2023-07-21T21:15:08.215Z,37.14
2023-07-21T21:18:10.918Z,37.25
2023-07-21T21:21:14.812Z,37.34
2023-07-21T21:24:18.593Z,37.13
2023-07-21T21:27:21.403Z,37.09
2023-07-21T21:30:24.042Z,37.17
2023-07-21T21:33:27.029Z,37.22
2023-07-21T21:36:30.922Z,36.99
2023-07-21T21:39:33.582Z,36.90
2023-07-21T21:42:36.273Z,36.98
2023-07-21T21:45:39.806Z,37.09
2023-07-21T21:48:42.402Z,37.02
2023-07-21T21:51:46.348Z,36.77
2023-07-21T21:54:49.347Z,36.76
2023-07-21T21:57:51.757Z,36.90
2023-07-21T22:00:54.398Z,36.99
2023-07-21T22:03:57.162Z,36.98
2023-07-21T22:07:01.422Z,36.90
2023-07-21T22:10:04.129Z,36.79
2023-07-21T22:13:06.726Z,36.96
2023-07-21T22:16:09.357Z,36.98
2023-07-21T22:19:11.967Z,37.03
2023-07-21T22:22:15.981Z,36.95
2023-07-21T22:25:18.630Z,36.98
2023-07-21T22:28:22.653Z,36.82
2023-07-21T22:31:25.451Z,36.88
2023-07-21T22:34:28.119Z,36.81
2023-07-21T22:37:32.016Z,36.87
2023-07-21T22:40:36.371Z,36.92
2023-07-21T22:43:39.039Z,36.95
2023-07-21T22:46:42.658Z,36.87
2023-07-21T22:49:45.302Z,36.89
2023-07-21T22:52:49.658Z,36.90
2023-07-21T22:55:55.026Z,37.00
2023-07-21T22:58:57.614Z,36.81
2023-07-21T23:02:00.586Z,36.81
2023-07-21T23:05:03.851Z,36.89
2023-07-21T23:08:07.874Z,36.88
2023-07-21T23:11:10.393Z,36.90
2023-07-21T23:14:12.934Z,36.72
2023-07-21T23:17:15.819Z,36.61
2023-07-21T23:20:18.232Z,36.79
2023-07-21T23:23:22.201Z,36.87
2023-07-21T23:26:25.333Z,36.85
2023-07-21T23:29:28.097Z,36.93
2023-07-21T23:32:30.808Z,36.77
2023-07-21T23:35:33.607Z,36.99
2023-07-21T23:38:37.533Z,37.02
2023-07-21T23:41:40.059Z,37.06
2023-07-21T23:44:42.678Z,37.02
2023-07-21T23:47:47.222Z,36.83
2023-07-21T23:50:49.884Z,36.90
2023-07-21T23:53:53.759Z,36.85
2023-07-21T23:56:58.065Z,37.03
